createdAt,value
2023-03-30T00:01:45.268Z,4.2
2023-03-30T00:04:47.306Z,3.4
2023-03-30T00:07:49.258Z,2.4
2023-03-30T00:10:51.211Z,5.1
2023-03-30T00:13:53.175Z,4.9
2023-03-30T00:16:55.198Z,4.1
2023-03-30T00:19:57.171Z,3.5
2023-03-30T00:22:59.049Z,4.2
2023-03-30T00:26:01.037Z,6.5
2023-03-30T00:29:02.999Z,4.9
2023-03-30T00:32:05.012Z,3.1
2023-03-30T00:35:06.926Z,5.3
2023-03-30T00:38:09.010Z,4.5
2023-03-30T00:41:10.837Z,3.6
2023-03-30T00:44:12.844Z,3.8
2023-03-30T00:47:14.789Z,3.5
2023-03-30T00:50:16.738Z,6.1
2023-03-30T00:53:18.739Z,5.1
2023-03-30T00:56:20.663Z,5.3
2023-03-30T00:59:22.657Z,4.4
2023-03-30T01:02:24.724Z,4.4
2023-03-30T01:05:26.606Z,6
2023-03-30T01:08:28.591Z,4.1
2023-03-30T01:11:30.533Z,11.3
2023-03-30T01:14:32.491Z,4.9
2023-03-30T01:17:34.567Z,4.8
2023-03-30T01:20:36.508Z,5.3
2023-03-30T01:23:38.485Z,4.2
2023-03-30T01:26:40.396Z,4.8
2023-03-30T01:29:42.356Z,4.5
2023-03-30T01:32:44.331Z,4.6
2023-03-30T01:35:46.366Z,5.2
2023-03-30T01:38:48.272Z,5.5
2023-03-30T01:41:50.226Z,6
2023-03-30T01:44:52.228Z,3.8
2023-03-30T01:47:54.346Z,6.6
2023-03-30T01:50:56.192Z,6.9
2023-03-30T01:53:58.180Z,4.5
2023-03-30T01:57:00.171Z,6.2
2023-03-30T02:00:02.091Z,7.6
2023-03-30T02:03:04.060Z,7.1
2023-03-30T02:06:06.004Z,7.6
2023-03-30T02:09:07.960Z,6.3
2023-03-30T02:12:09.931Z,7.1
2023-03-30T02:15:11.914Z,3.7
2023-03-30T02:18:13.868Z,4.4
2023-03-30T02:21:15.826Z,4.6
2023-03-30T02:24:17.894Z,7.1
2023-03-30T02:27:19.768Z,5.1
2023-03-30T02:30:21.716Z,8.7
2023-03-30T02:33:23.722Z,7
2023-03-30T02:36:25.696Z,4.5
2023-03-30T02:39:27.639Z,5.3
2023-03-30T02:42:29.585Z,5.4
2023-03-30T02:45:31.553Z,6.7
2023-03-30T02:48:33.495Z,6.8
2023-03-30T02:51:35.474Z,8.9
2023-03-30T02:54:37.448Z,6.3
2023-03-30T02:57:39.377Z,4.5
2023-03-30T03:00:41.348Z,8.3
2023-03-30T03:03:43.453Z,6.9
2023-03-30T03:06:45.266Z,6.2
2023-03-30T03:09:47.231Z,6.3
2023-03-30T03:12:49.212Z,7.1
2023-03-30T03:15:51.152Z,6.7
2023-03-30T03:18:53.135Z,7.9
2023-03-30T03:21:55.077Z,8.7
2023-03-30T03:24:57.048Z,6.7
2023-03-30T03:27:59.037Z,6.2
2023-03-30T03:31:01.061Z,5.4
2023-03-30T03:34:02.945Z,4.7
2023-03-30T03:37:04.916Z,9.5
2023-03-30T03:40:06.852Z,9.6
2023-03-30T03:43:08.817Z,5.3
2023-03-30T03:46:10.815Z,5.2
2023-03-30T03:49:12.859Z,6.8
2023-03-30T03:52:14.928Z,6.5
2023-03-30T03:55:16.864Z,7.8
2023-03-30T03:58:18.830Z,6.9
2023-03-30T04:01:20.779Z,6.8
2023-03-30T04:04:22.773Z,7.8
2023-03-30T04:07:24.752Z,6
2023-03-30T04:10:26.732Z,8.1
2023-03-30T04:13:28.660Z,7.3
2023-03-30T04:16:30.707Z,4.5
2023-03-30T04:19:32.554Z,9.9
2023-03-30T04:22:34.506Z,6.6
2023-03-30T04:25:36.465Z,8.5
2023-03-30T04:28:38.460Z,8
2023-03-30T04:31:40.433Z,8.9
2023-03-30T04:34:42.387Z,3.4
2023-03-30T04:37:44.369Z,4.9
2023-03-30T04:40:46.310Z,8.3
2023-03-30T04:43:48.315Z,6.8
2023-03-30T04:46:50.244Z,6
2023-03-30T04:49:52.231Z,6.5
2023-03-30T04:52:54.180Z,8.1
2023-03-30T04:55:56.177Z,6.4
2023-03-30T04:58:58.358Z,5.1
2023-03-30T05:02:00.193Z,10.7
2023-03-30T05:05:02.042Z,5.3
2023-03-30T05:08:03.997Z,8.3
2023-03-30T05:11:06.080Z,9.1
2023-03-30T05:14:07.938Z,7.5
2023-03-30T05:17:09.906Z,8
2023-03-30T05:20:11.848Z,8.2
2023-03-30T05:23:13.875Z,7.1
2023-03-30T05:26:15.919Z,13.1
2023-03-30T05:29:17.807Z,10.1
2023-03-30T05:32:19.738Z,10
2023-03-30T05:35:21.696Z,10.6
2023-03-30T05:38:23.644Z,8.9
2023-03-30T05:41:25.661Z,6.6
2023-03-30T05:44:27.612Z,11.3
2023-03-30T05:47:29.600Z,9.2
2023-03-30T05:50:31.505Z,7.6
2023-03-30T05:53:33.639Z,7.9
2023-03-30T05:56:35.634Z,7.7
2023-03-30T05:59:37.516Z,12.9
2023-03-30T06:02:39.514Z,13.1
2023-03-30T06:05:41.433Z,13.5
2023-03-30T06:08:43.388Z,8.9
2023-03-30T06:11:45.338Z,8.8
2023-03-30T06:14:47.319Z,7.9
2023-03-30T06:17:49.347Z,10.7
2023-03-30T06:20:51.230Z,8.5
2023-03-30T06:23:53.215Z,8.6
2023-03-30T06:26:55.159Z,12.8
2023-03-30T06:29:57.141Z,10.2
2023-03-30T06:32:59.261Z,13
2023-03-30T06:36:01.039Z,7.1
2023-03-30T06:39:04.650Z,13.3
2023-03-30T06:42:04.969Z,18
2023-03-30T06:45:06.935Z,12.3
2023-03-30T06:48:08.909Z,12.1
2023-03-30T06:51:10.872Z,12.3
2023-03-30T06:54:12.819Z,11.5
2023-03-30T06:57:14.802Z,10.5
2023-03-30T07:00:16.740Z,10.1
2023-03-30T07:03:18.698Z,10.6
2023-03-30T07:06:21.410Z,11.8
2023-03-30T07:09:22.628Z,10.6
2023-03-30T07:12:24.613Z,13.2
2023-03-30T07:15:26.557Z,12.6
2023-03-30T07:18:28.618Z,9.4
2023-03-30T07:21:30.477Z,14
2023-03-30T07:24:32.472Z,12.5
2023-03-30T07:27:34.410Z,10.5
2023-03-30T07:30:36.351Z,10.2
2023-03-30T07:33:38.436Z,8.2
2023-03-30T07:36:40.284Z,8.2
2023-03-30T07:39:42.223Z,14.7
2023-03-30T07:42:44.181Z,14.1
2023-03-30T07:45:46.159Z,9.8
2023-03-30T07:48:48.094Z,11.8
2023-03-30T07:51:50.099Z,8.4
2023-03-30T07:54:52.033Z,13
2023-03-30T07:57:54.017Z,9.1
2023-03-30T08:00:55.950Z,10.9
2023-03-30T08:03:57.979Z,13.3
2023-03-30T08:06:59.902Z,11.3
2023-03-30T08:10:01.977Z,10.5
2023-03-30T08:13:03.988Z,11.7
2023-03-30T08:16:05.919Z,6.9
2023-03-30T08:19:07.842Z,8.5
2023-03-30T08:22:09.854Z,8.1
2023-03-30T08:25:11.784Z,9.1
2023-03-30T08:28:13.713Z,8.4
2023-03-30T08:31:15.757Z,7.4
2023-03-30T08:34:17.650Z,7.2
2023-03-30T08:37:19.596Z,6.3
2023-03-30T08:40:21.571Z,6.5
2023-03-30T08:43:23.535Z,5
2023-03-30T08:46:25.600Z,8.1
2023-03-30T08:49:27.441Z,10.4
2023-03-30T08:52:29.443Z,5.4
2023-03-30T08:55:31.413Z,7.7
2023-03-30T08:58:33.353Z,5.9
2023-03-30T09:01:35.346Z,9.9
2023-03-30T09:04:37.557Z,7
2023-03-30T09:07:39.244Z,6
2023-03-30T09:10:41.218Z,5.5
2023-03-30T09:13:43.264Z,5.8
2023-03-30T09:16:45.191Z,6.1
2023-03-30T09:19:47.114Z,5.3
2023-03-30T09:22:49.077Z,8.4
2023-03-30T09:25:51.056Z,7.8
2023-03-30T09:28:52.983Z,7
2023-03-30T09:31:54.987Z,6.3
2023-03-30T09:34:56.938Z,7
2023-03-30T09:37:58.898Z,4.3
2023-03-30T09:41:00.955Z,7.6
2023-03-30T09:44:02.812Z,6.8
2023-03-30T09:47:04.897Z,8.3
2023-03-30T09:50:06.741Z,5.9
2023-03-30T09:53:08.690Z,8
2023-03-30T09:56:10.727Z,5.6
2023-03-30T09:59:12.693Z,6.7
2023-03-30T10:02:14.662Z,7.9
2023-03-30T10:05:16.630Z,6.1
2023-03-30T10:08:18.615Z,6.2
2023-03-30T10:11:20.573Z,8.4
2023-03-30T10:14:22.544Z,8.3
2023-03-30T10:17:24.520Z,6.8
2023-03-30T10:20:26.524Z,6.8
2023-03-30T10:23:28.442Z,5.6
2023-03-30T10:26:30.404Z,4.9
2023-03-30T10:29:32.419Z,7.2
2023-03-30T10:32:34.401Z,9.2
2023-03-30T10:35:36.323Z,4.7
2023-03-30T10:38:38.300Z,5.5
2023-03-30T10:41:40.332Z,6.9
2023-03-30T10:44:42.244Z,8
2023-03-30T10:47:44.219Z,9.9
2023-03-30T10:50:46.161Z,7.8
2023-03-30T10:53:48.120Z,6.9
2023-03-30T10:56:50.104Z,5.5
2023-03-30T10:59:52.052Z,6.1
2023-03-30T11:02:54.053Z,5.8
2023-03-30T11:05:56.001Z,6.1
2023-03-30T11:08:57.978Z,5.4
2023-03-30T11:11:59.945Z,5.8
2023-03-30T11:15:01.929Z,3.4
2023-03-30T11:18:03.917Z,4.4
2023-03-30T11:21:05.805Z,4.9
2023-03-30T11:24:07.902Z,5.7
2023-03-30T11:27:09.824Z,5.2
2023-03-30T11:30:11.772Z,6.1
2023-03-30T11:33:13.795Z,4.1
2023-03-30T11:36:15.733Z,4.9
2023-03-30T11:39:29.291Z,4.3
2023-03-30T11:42:19.748Z,7.3
2023-03-30T11:45:21.578Z,7.8
2023-03-30T11:48:23.536Z,6.3
2023-03-30T11:51:25.538Z,3.6
2023-03-30T11:54:27.483Z,4.5
2023-03-30T11:57:29.489Z,6.9
2023-03-30T12:00:31.436Z,5
2023-03-30T12:03:33.505Z,4.8
2023-03-30T12:06:35.377Z,5.9
2023-03-30T12:09:37.588Z,3.8
2023-03-30T12:12:39.286Z,7.1
2023-03-30T12:15:41.247Z,6.8
2023-03-30T12:18:43.207Z,5.4
2023-03-30T12:21:46.141Z,5.2
2023-03-30T12:24:47.130Z,7.1
2023-03-30T12:27:49.085Z,6.3
2023-03-30T12:30:51.077Z,4.3
2023-03-30T12:33:53.016Z,4.6
2023-03-30T12:36:54.959Z,3.7
2023-03-30T12:39:56.922Z,4.9
2023-03-30T12:42:58.880Z,2.9
2023-03-30T12:46:00.847Z,3.3
2023-03-30T12:49:05.117Z,4
2023-03-30T12:52:04.769Z,6.5
2023-03-30T12:55:06.720Z,3.9
2023-03-30T12:58:08.680Z,2.7
2023-03-30T13:01:10.753Z,3.8
2023-03-30T13:04:12.637Z,7.2
2023-03-30T13:07:14.566Z,6.2
2023-03-30T13:10:16.594Z,4.7
2023-03-30T13:13:18.525Z,5.5
2023-03-30T13:16:20.479Z,3.4
2023-03-30T13:19:22.432Z,6.6
2023-03-30T13:22:24.398Z,5.4
2023-03-30T13:25:26.371Z,4.6
2023-03-30T13:28:28.303Z,4
2023-03-30T13:31:30.253Z,5.1
2023-03-30T13:34:32.228Z,4.9
2023-03-30T13:37:34.176Z,3.7
2023-03-30T13:40:44.066Z,1.9
2023-03-30T13:43:38.093Z,3.6
2023-03-30T13:46:40.128Z,2.9
2023-03-30T13:49:42.079Z,2.4
2023-03-30T13:52:44.014Z,4.9
2023-03-30T13:55:45.994Z,4.7
2023-03-30T13:58:47.927Z,1
2023-03-30T14:01:49.941Z,1.8
2023-03-30T14:04:51.893Z,2.4
2023-03-30T14:07:55.271Z,3.6
2023-03-30T14:10:55.797Z,2.2
2023-03-30T14:13:57.785Z,4.4
2023-03-30T14:16:59.715Z,4.8
2023-03-30T14:20:01.716Z,3.1
2023-03-30T14:23:03.736Z,3.9
2023-03-30T14:26:05.750Z,5.5
2023-03-30T14:29:11.015Z,2.2
2023-03-30T14:32:10.997Z,3.5
2023-03-30T14:35:11.540Z,4.2
2023-03-30T14:38:16.696Z,4.2
2023-03-30T14:41:15.451Z,2.5
2023-03-30T14:44:17.395Z,2.3
2023-03-30T14:47:19.369Z,2
2023-03-30T14:50:21.318Z,2.6
2023-03-30T14:53:23.324Z,1.2
2023-03-30T14:56:25.273Z,1.8
2023-03-30T14:59:27.242Z,2.5
2023-03-30T15:02:29.231Z,2.7
2023-03-30T15:05:31.204Z,3.2
2023-03-30T15:08:33.149Z,2.3
2023-03-30T15:11:35.075Z,1.9
2023-03-30T15:14:37.085Z,2.9
2023-03-30T15:17:39.000Z,1.6
2023-03-30T15:20:40.969Z,2.6
2023-03-30T15:23:42.962Z,1.7
2023-03-30T15:26:44.894Z,1.9
2023-03-30T15:29:46.836Z,1.7
2023-03-30T15:32:49.195Z,2.9
2023-03-30T15:35:50.819Z,3.1
2023-03-30T15:38:52.746Z,4.6
2023-03-30T15:41:54.727Z,3.7
2023-03-30T15:44:56.668Z,3
2023-03-30T15:47:58.672Z,3.2
2023-03-30T15:51:00.578Z,3.2
2023-03-30T15:54:02.561Z,6.6
2023-03-30T15:57:04.577Z,3
2023-03-30T16:00:06.534Z,3.2
2023-03-30T16:03:08.485Z,2.4
2023-03-30T16:06:10.366Z,4.7
2023-03-30T16:09:12.323Z,2.3
2023-03-30T16:12:14.300Z,5.3
2023-03-30T16:15:16.305Z,1.8
2023-03-30T16:18:18.270Z,2.5
2023-03-30T16:21:20.204Z,5.1
2023-03-30T16:24:22.132Z,4.3
2023-03-30T16:27:24.089Z,4.2
2023-03-30T16:30:26.054Z,3.6
2023-03-30T16:33:28.023Z,4
2023-03-30T16:36:30.000Z,5.4
2023-03-30T16:39:31.978Z,3.9
2023-03-30T16:42:33.887Z,5.7
2023-03-30T16:45:36.095Z,3.5
2023-03-30T16:48:37.804Z,4.8
2023-03-30T16:51:39.778Z,5.6
2023-03-30T16:54:41.749Z,4.2
2023-03-30T16:57:43.708Z,2.7
2023-03-30T17:00:45.708Z,3.3
2023-03-30T17:03:47.626Z,4.3
2023-03-30T17:06:49.609Z,3.6
2023-03-30T17:09:51.581Z,4.2
2023-03-30T17:12:53.509Z,3.4
2023-03-30T17:15:55.463Z,2.1
2023-03-30T17:18:57.494Z,2.5
2023-03-30T17:21:59.439Z,2.1
2023-03-30T17:25:01.365Z,3.1
2023-03-30T17:28:03.324Z,2
2023-03-30T17:31:05.837Z,3.3
2023-03-30T17:34:07.491Z,3
2023-03-30T17:37:09.217Z,2.8
2023-03-30T17:40:11.212Z,3
2023-03-30T17:43:13.186Z,2.1
2023-03-30T17:46:15.169Z,5
2023-03-30T17:49:17.107Z,2.5
2023-03-30T17:52:19.096Z,5.1
2023-03-30T17:55:21.029Z,2.6
2023-03-30T17:58:22.987Z,4.8
2023-03-30T18:01:24.988Z,3.2
2023-03-30T18:04:26.922Z,4.9
2023-03-30T18:07:28.867Z,4.1
2023-03-30T18:10:30.852Z,2.9
2023-03-30T18:13:32.836Z,3
2023-03-30T18:16:34.818Z,1.8
2023-03-30T18:19:36.754Z,4.6
2023-03-30T18:22:38.741Z,3.3
2023-03-30T18:25:40.702Z,2
2023-03-30T18:28:42.608Z,5.6
2023-03-30T18:31:44.630Z,2.7
2023-03-30T18:34:46.607Z,5
2023-03-30T18:37:48.498Z,4.7
2023-03-30T18:40:50.583Z,4
2023-03-30T18:43:52.425Z,6
2023-03-30T18:46:54.386Z,4
2023-03-30T18:49:56.371Z,4.7
2023-03-30T18:52:58.289Z,5.8
2023-03-30T18:56:00.805Z,5.6
2023-03-30T18:59:02.225Z,3.7
2023-03-30T19:02:04.434Z,4.9
2023-03-30T19:05:06.143Z,5.7
2023-03-30T19:08:08.161Z,5
2023-03-30T19:11:10.094Z,3.3
2023-03-30T19:14:12.082Z,5.8
2023-03-30T19:17:14.002Z,4.4
2023-03-30T19:20:15.953Z,4.6
2023-03-30T19:23:17.965Z,4.8
2023-03-30T19:26:19.923Z,3.9
2023-03-30T19:29:21.888Z,5.6
2023-03-30T19:32:23.832Z,4.3
2023-03-30T19:35:25.813Z,3.4
2023-03-30T19:38:27.715Z,4.6
2023-03-30T19:41:29.705Z,8
2023-03-30T19:44:31.649Z,5.8
2023-03-30T19:47:33.657Z,3.3
2023-03-30T19:50:35.619Z,5.1
2023-03-30T19:53:37.567Z,6.1
2023-03-30T19:56:39.524Z,4.9
2023-03-30T19:59:41.443Z,5.3
2023-03-30T20:02:43.540Z,5.3
2023-03-30T20:05:45.419Z,3
2023-03-30T20:08:47.361Z,3.8
2023-03-30T20:11:49.333Z,4.7
2023-03-30T20:14:51.300Z,3
2023-03-30T20:17:53.314Z,3.5
2023-03-30T20:20:55.321Z,3.3
2023-03-30T20:23:57.192Z,4.2
2023-03-30T20:26:59.209Z,3.6
2023-03-30T20:30:01.111Z,2.9
2023-03-30T20:33:07.612Z,3.4
2023-03-30T20:36:05.100Z,3.8
2023-03-30T20:39:07.215Z,6.9
2023-03-30T20:42:08.987Z,8.2
2023-03-30T20:45:10.989Z,4.3
2023-03-30T20:48:12.946Z,4.7
2023-03-30T20:51:14.932Z,4.8
2023-03-30T20:54:16.869Z,7.9
2023-03-30T20:57:18.850Z,6.7
2023-03-30T21:00:20.833Z,3.9
2023-03-30T21:03:22.747Z,5
2023-03-30T21:06:24.695Z,4.8
2023-03-30T21:09:26.662Z,3.3
2023-03-30T21:12:28.652Z,7.9
2023-03-30T21:15:30.706Z,5.2
2023-03-30T21:18:32.671Z,3
2023-03-30T21:21:34.622Z,4.7
2023-03-30T21:24:36.579Z,8
2023-03-30T21:27:38.581Z,4
2023-03-30T21:30:40.583Z,4
2023-03-30T21:33:42.520Z,3.7
2023-03-30T21:36:44.502Z,5.6
2023-03-30T21:39:46.419Z,3.3
2023-03-30T21:42:48.378Z,4.3
2023-03-30T21:45:50.329Z,4.2
2023-03-30T21:48:53.821Z,5.5
2023-03-30T21:51:54.278Z,4.4
2023-03-30T21:54:56.246Z,4.1
2023-03-30T21:57:58.207Z,5.8
2023-03-30T22:01:10.922Z,6.3
2023-03-30T22:04:03.904Z,2.2
2023-03-30T22:07:04.108Z,4.8
2023-03-30T22:10:06.040Z,5.6
2023-03-30T22:13:08.010Z,5.1
2023-03-30T22:16:10.139Z,4.8
2023-03-30T22:19:11.949Z,6.7
2023-03-30T22:22:13.901Z,6.9
2023-03-30T22:25:15.873Z,6
2023-03-30T22:28:17.790Z,5.2
2023-03-30T22:31:19.749Z,4.9
2023-03-30T22:34:21.762Z,5.1
2023-03-30T22:37:23.779Z,4.5
2023-03-30T22:40:25.671Z,3.7
2023-03-30T22:43:27.681Z,6.7
2023-03-30T22:46:29.741Z,5.1
2023-03-30T22:49:31.559Z,5.8
2023-03-30T22:52:33.535Z,3.7
2023-03-30T22:55:35.469Z,3.7
2023-03-30T22:58:37.493Z,8
2023-03-30T23:01:39.491Z,6.3
2023-03-30T23:04:41.392Z,2.8
2023-03-30T23:07:43.321Z,3.4
2023-03-30T23:10:45.292Z,4.6
2023-03-30T23:13:47.241Z,2.9
2023-03-30T23:16:49.219Z,6.1
2023-03-30T23:19:51.154Z,5
2023-03-30T23:22:53.147Z,3.8
2023-03-30T23:25:55.098Z,4.7
2023-03-30T23:28:57.028Z,4.5
2023-03-30T23:31:59.006Z,3.2
2023-03-30T23:35:00.960Z,5.3
2023-03-30T23:38:02.918Z,5.5
2023-03-30T23:41:05.106Z,3.4
2023-03-30T23:44:06.859Z,4.2
2023-03-30T23:47:08.829Z,3.4
2023-03-30T23:50:10.785Z,3.7
2023-03-30T23:53:12.752Z,3.5
2023-03-30T23:56:14.749Z,5.7
2023-03-30T23:59:16.697Z,3.6
